createdAt,value
2022-08-08T00:00:50.074Z,100328.81
2022-08-08T00:03:33.141Z,100324.78
2022-08-08T00:07:12.975Z,100327.06
2022-08-08T00:11:00.103Z,100315.09
2022-08-08T00:15:00.362Z,100315.31
2022-08-08T00:18:40.186Z,100318.31
2022-08-08T00:22:10.596Z,100313.84
2022-08-08T00:25:50.887Z,100316.25
2022-08-08T00:29:46.039Z,100318.31
2022-08-08T00:33:35.815Z,100320.72
2022-08-08T00:37:46.874Z,100315.91
2022-08-08T00:42:08.943Z,100321.19
2022-08-08T00:45:58.103Z,100323.59
2022-08-08T00:49:35.123Z,100322.00
2022-08-08T00:53:15.518Z,100319.94
2022-08-08T00:57:04.391Z,100321.31
2022-08-08T01:00:34.525Z,100327.19
2022-08-08T01:04:16.114Z,100328.81
2022-08-08T01:08:30.198Z,100330.41
2022-08-08T01:11:52.096Z,100336.22
2022-08-08T01:15:37.189Z,100335.97
2022-08-08T01:19:13.583Z,100331.94
2022-08-08T01:22:56.176Z,100324.66
2022-08-08T01:26:49.239Z,100322.16
2022-08-08T01:30:35.135Z,100320.53
2022-08-08T01:34:28.789Z,100325.41
2022-08-08T01:38:16.189Z,100318.03
2022-08-08T01:41:50.164Z,100315.50
2022-08-08T01:45:37.620Z,100324.03
2022-08-08T01:49:37.708Z,100328.16
2022-08-08T01:54:18.699Z,100325.13
2022-08-08T01:57:10.642Z,100323.69
2022-08-08T02:00:50.216Z,100325.84
2022-08-08T02:05:15.188Z,100319.50
2022-08-08T02:08:56.197Z,100319.31
2022-08-08T02:12:48.130Z,100324.63
2022-08-08T02:16:35.132Z,100324.03
2022-08-08T02:21:03.047Z,100333.00
2022-08-08T02:24:14.890Z,100330.13
2022-08-08T02:27:48.211Z,100336.22
2022-08-08T02:31:59.654Z,100331.81
2022-08-08T02:36:05.265Z,100334.72
2022-08-08T02:40:00.165Z,100329.03
2022-08-08T02:44:37.408Z,100348.75
2022-08-08T02:48:08.184Z,100349.41
2022-08-08T02:52:32.711Z,100352.94
2022-08-08T02:56:11.261Z,100367.03
2022-08-08T02:59:57.688Z,100365.03
2022-08-08T03:05:04.944Z,100369.91
2022-08-08T03:08:24.181Z,100376.66
2022-08-08T03:12:13.959Z,100375.19
2022-08-08T03:15:58.109Z,100381.25
2022-08-08T03:19:50.854Z,100382.13
2022-08-08T03:23:17.597Z,100383.31
2022-08-08T03:26:49.169Z,100388.59
2022-08-08T03:30:19.885Z,100393.13
2022-08-08T03:33:58.138Z,100390.34
2022-08-08T03:38:52.944Z,100395.56
2022-08-08T03:41:43.108Z,100403.16
2022-08-08T03:44:52.254Z,100400.34
2022-08-08T03:48:21.151Z,100402.97
2022-08-08T03:51:57.215Z,100408.44
2022-08-08T03:55:56.536Z,100412.22
2022-08-08T03:59:07.179Z,100419.19
2022-08-08T04:02:51.734Z,100422.81
2022-08-08T04:06:19.183Z,100428.31
2022-08-08T04:09:58.925Z,100429.16
2022-08-08T04:13:23.182Z,100417.81
2022-08-08T04:16:49.160Z,100425.53
2022-08-08T04:20:10.208Z,100432.94
2022-08-08T04:24:00.421Z,100429.56
2022-08-08T04:27:19.445Z,100430.50
2022-08-08T04:30:48.135Z,100432.03
2022-08-08T04:34:09.208Z,100436.22
2022-08-08T04:37:32.289Z,100439.91
2022-08-08T04:41:01.229Z,100444.28
2022-08-08T04:44:22.266Z,100444.19
2022-08-08T04:47:47.234Z,100448.34
2022-08-08T04:51:10.236Z,100454.00
2022-08-08T04:54:42.133Z,100459.69
2022-08-08T04:58:03.223Z,100456.91
2022-08-08T05:01:24.238Z,100456.81
2022-08-08T05:04:56.217Z,100456.97
2022-08-08T05:08:22.199Z,100454.31
2022-08-08T05:11:57.068Z,100465.50
2022-08-08T05:15:19.191Z,100466.09
2022-08-08T05:18:46.257Z,100452.81
2022-08-08T05:22:07.262Z,100465.81
2022-08-08T05:25:41.560Z,100458.69
2022-08-08T05:29:06.463Z,100458.25
2022-08-08T05:32:30.004Z,100456.16
2022-08-08T05:35:57.231Z,100459.97
2022-08-08T05:39:20.313Z,100457.56
2022-08-08T05:42:49.112Z,100468.75
2022-08-08T05:46:08.264Z,100466.28
2022-08-08T05:49:31.155Z,100468.34
2022-08-08T05:52:53.324Z,100478.97
2022-08-08T05:56:17.396Z,100476.91
2022-08-08T05:59:59.427Z,100470.16
2022-08-08T06:03:31.272Z,100474.53
2022-08-08T06:06:56.357Z,100484.16
2022-08-08T06:10:24.745Z,100485.28
2022-08-08T06:13:47.276Z,100476.81
2022-08-08T06:17:19.590Z,100484.19
2022-08-08T06:20:43.216Z,100488.97
2022-08-08T06:24:13.735Z,100486.16
2022-08-08T06:28:00.256Z,100503.25
2022-08-08T06:31:32.191Z,100503.84
2022-08-08T06:36:00.768Z,100511.59
2022-08-08T06:38:57.238Z,100506.69
2022-08-08T06:42:46.293Z,100503.19
2022-08-08T06:46:14.320Z,100508.31
2022-08-08T06:49:56.135Z,100510.66
2022-08-08T06:53:20.585Z,100517.97
2022-08-08T06:56:47.224Z,100518.50
2022-08-08T07:00:14.243Z,100517.44
2022-08-08T07:04:39.618Z,100515.88
2022-08-08T07:07:48.285Z,100520.88
2022-08-08T07:11:22.045Z,100516.34
2022-08-08T07:15:01.279Z,100503.06
2022-08-08T07:18:36.344Z,100511.09
2022-08-08T07:22:18.443Z,100527.69
2022-08-08T07:25:44.151Z,100523.03
2022-08-08T07:29:20.450Z,100521.91
2022-08-08T07:33:02.309Z,100523.63
2022-08-08T07:36:24.236Z,100531.09
2022-08-08T07:39:57.829Z,100536.19
2022-08-08T07:43:32.372Z,100530.47
2022-08-08T07:46:59.275Z,100537.59
2022-08-08T07:50:22.115Z,100533.59
2022-08-08T07:54:08.275Z,100542.28
2022-08-08T07:57:29.585Z,100543.00
2022-08-08T08:01:00.362Z,100531.72
2022-08-08T08:04:30.286Z,100537.69
2022-08-08T08:07:56.273Z,100540.91
2022-08-08T08:11:34.131Z,100530.66
2022-08-08T08:15:23.212Z,100534.56
2022-08-08T08:19:15.000Z,100532.84
2022-08-08T08:22:36.272Z,100532.88
2022-08-08T08:25:59.986Z,100534.25
2022-08-08T08:29:22.328Z,100542.06
2022-08-08T08:32:51.444Z,100530.22
2022-08-08T08:36:26.341Z,100528.53
2022-08-08T08:40:01.320Z,100535.44
2022-08-08T08:43:28.886Z,100537.38
2022-08-08T08:46:58.560Z,100534.03
2022-08-08T08:50:32.691Z,100533.22
2022-08-08T08:54:04.257Z,100527.97
2022-08-08T08:57:28.444Z,100540.44
2022-08-08T09:01:09.318Z,100542.75
2022-08-08T09:04:50.037Z,100533.03
2022-08-08T09:08:20.731Z,100534.09
2022-08-08T09:11:47.297Z,100527.63
2022-08-08T09:15:41.617Z,100527.97
2022-08-08T09:18:57.285Z,100530.91
2022-08-08T09:22:26.622Z,100529.28
2022-08-08T09:26:00.572Z,100534.53
2022-08-08T09:29:33.328Z,100536.88
2022-08-08T09:34:18.739Z,100540.22
2022-08-08T09:37:57.429Z,100534.28
2022-08-08T09:41:24.452Z,100545.50
2022-08-08T09:45:15.590Z,100532.16
2022-08-08T09:48:42.543Z,100533.75
2022-08-08T09:52:13.217Z,100536.03
2022-08-08T09:56:04.144Z,100533.53
2022-08-08T10:00:01.995Z,100548.31
2022-08-08T10:03:00.321Z,100542.78
2022-08-08T10:06:32.853Z,100546.88
2022-08-08T10:10:07.177Z,100534.81
2022-08-08T10:13:58.310Z,100537.47
2022-08-08T10:17:56.854Z,100537.66
2022-08-08T10:21:03.487Z,100545.09
2022-08-08T10:24:34.873Z,100548.47
2022-08-08T10:27:57.647Z,100546.63
2022-08-08T10:31:47.719Z,100548.00
2022-08-08T10:36:07.520Z,100553.81
2022-08-08T10:38:55.338Z,100560.25
2022-08-08T10:42:18.328Z,100565.47
2022-08-08T10:45:41.406Z,100561.84
2022-08-08T10:49:03.354Z,100557.88
2022-08-08T10:52:28.314Z,100550.00
2022-08-08T10:55:52.312Z,100559.13
2022-08-08T10:59:22.434Z,100550.63
2022-08-08T11:02:47.412Z,100545.69
2022-08-08T11:06:12.710Z,100545.78
2022-08-08T11:09:36.353Z,100539.41
2022-08-08T11:13:29.123Z,100540.59
2022-08-08T11:16:42.360Z,100548.13
2022-08-08T11:20:11.053Z,100541.81
2022-08-08T11:23:35.340Z,100537.78
2022-08-08T11:26:58.313Z,100543.84
2022-08-08T11:30:24.910Z,100554.69
2022-08-08T11:33:52.598Z,100552.25
2022-08-08T11:38:35.386Z,100557.09
2022-08-08T11:41:07.354Z,100553.22
2022-08-08T11:44:29.039Z,100563.13
2022-08-08T11:48:02.542Z,100554.31
2022-08-08T11:51:38.940Z,100567.09
2022-08-08T11:55:01.353Z,100559.53
2022-08-08T11:58:24.328Z,100557.31
2022-08-08T12:01:47.357Z,100560.06
2022-08-08T12:05:23.321Z,100551.25
2022-08-08T12:08:50.338Z,100539.13
2022-08-08T12:12:14.434Z,100554.03
2022-08-08T12:15:47.203Z,100550.50
2022-08-08T12:19:09.385Z,100545.09
2022-08-08T12:22:39.590Z,100543.59
2022-08-08T12:26:06.418Z,100536.41
2022-08-08T12:29:44.924Z,100539.25
2022-08-08T12:33:09.367Z,100537.47
2022-08-08T12:36:30.348Z,100548.44
2022-08-08T12:40:01.684Z,100550.34
2022-08-08T12:43:26.364Z,100549.03
2022-08-08T12:46:56.092Z,100541.44
2022-08-08T12:50:21.397Z,100537.69
2022-08-08T12:53:47.356Z,100547.22
2022-08-08T12:57:10.352Z,100550.38
2022-08-08T13:00:41.357Z,100539.16
2022-08-08T13:04:04.365Z,100536.44
2022-08-08T13:08:04.177Z,100541.09
2022-08-08T13:11:08.318Z,100536.22
2022-08-08T13:14:29.358Z,100548.72
2022-08-08T13:18:09.013Z,100540.50
2022-08-08T13:21:48.911Z,100539.63
2022-08-08T13:25:12.373Z,100539.94
2022-08-08T13:28:42.831Z,100547.03
2022-08-08T13:32:06.405Z,100552.47
2022-08-08T13:35:38.995Z,100542.59
2022-08-08T13:39:05.417Z,100548.38
2022-08-08T13:42:30.727Z,100542.75
2022-08-08T13:45:51.387Z,100544.56
2022-08-08T13:50:34.588Z,100542.13
2022-08-08T13:53:23.016Z,100539.88
2022-08-08T13:57:00.152Z,100546.31
2022-08-08T14:00:25.386Z,100541.84
2022-08-08T14:03:54.353Z,100539.63
2022-08-08T14:07:18.419Z,100531.44
2022-08-08T14:10:40.404Z,100531.34
2022-08-08T14:14:05.934Z,100537.53
2022-08-08T14:17:58.256Z,100542.53
2022-08-08T14:21:20.999Z,100533.72
2022-08-08T14:24:47.405Z,100537.03
2022-08-08T14:28:22.417Z,100532.47
2022-08-08T14:32:09.212Z,100542.88
2022-08-08T14:35:38.378Z,100547.13
2022-08-08T14:38:59.377Z,100531.47
2022-08-08T14:42:23.503Z,100536.75
2022-08-08T14:46:02.379Z,100533.66
2022-08-08T14:49:33.455Z,100533.28
2022-08-08T14:52:59.465Z,100533.13
2022-08-08T14:56:21.411Z,100530.56
2022-08-08T14:59:51.172Z,100525.84
2022-08-08T15:03:17.225Z,100530.78
2022-08-08T15:06:42.539Z,100530.66
2022-08-08T15:10:06.458Z,100523.34
2022-08-08T15:13:40.277Z,100530.59
2022-08-08T15:17:04.393Z,100525.75
2022-08-08T15:20:30.428Z,100521.88
2022-08-08T15:23:52.035Z,100523.56
2022-08-08T15:28:03.459Z,100525.44
2022-08-08T15:30:54.409Z,100523.28
2022-08-08T15:34:28.810Z,100527.63
2022-08-08T15:37:52.470Z,100527.00
2022-08-08T15:41:14.423Z,100526.81
2022-08-08T15:44:35.433Z,100525.03
2022-08-08T15:48:15.377Z,100519.56
2022-08-08T15:51:37.410Z,100520.75
2022-08-08T15:55:00.456Z,100519.41
2022-08-08T15:58:28.348Z,100525.28
2022-08-08T16:01:59.741Z,100519.28
2022-08-08T16:05:21.570Z,100522.25
2022-08-08T16:09:02.378Z,100516.50
2022-08-08T16:13:11.187Z,100530.09
2022-08-08T16:16:12.833Z,100523.06
2022-08-08T16:19:57.209Z,100523.59
2022-08-08T16:23:21.415Z,100520.81
2022-08-08T16:26:48.991Z,100519.47
2022-08-08T16:30:13.442Z,100519.13
2022-08-08T16:33:38.043Z,100523.94
2022-08-08T16:36:59.382Z,100516.38
2022-08-08T16:40:21.481Z,100512.19
2022-08-08T16:43:50.991Z,100529.00
2022-08-08T16:47:12.493Z,100535.09
2022-08-08T16:50:33.437Z,100546.41
2022-08-08T16:55:00.740Z,100549.44
2022-08-08T16:58:14.695Z,100550.84
2022-08-08T17:01:24.569Z,100553.91
2022-08-08T17:04:45.423Z,100552.56
2022-08-08T17:08:06.429Z,100548.81
2022-08-08T17:11:48.558Z,100559.91
2022-08-08T17:15:17.877Z,100566.66
2022-08-08T17:18:41.428Z,100559.47
2022-08-08T17:22:02.529Z,100567.28
2022-08-08T17:25:16.798Z,100568.38
2022-08-08T17:28:37.444Z,100569.84
2022-08-08T17:31:58.445Z,100568.81
2022-08-08T17:35:53.550Z,100567.19
2022-08-08T17:39:05.545Z,100558.47
2022-08-08T17:42:47.402Z,100567.03
2022-08-08T17:46:11.451Z,100561.97
2022-08-08T17:49:42.647Z,100555.47
2022-08-08T17:53:05.444Z,100560.63
2022-08-08T17:56:27.490Z,100569.88
2022-08-08T17:59:51.757Z,100568.50
2022-08-08T18:03:14.493Z,100569.97
2022-08-08T18:06:43.029Z,100568.56
2022-08-08T18:10:05.455Z,100565.16
2022-08-08T18:13:26.463Z,100570.28
2022-08-08T18:16:52.673Z,100560.94
2022-08-08T18:20:43.960Z,100554.09
2022-08-08T18:23:56.482Z,100562.84
2022-08-08T18:27:18.117Z,100572.56
2022-08-08T18:30:39.458Z,100571.72
2022-08-08T18:34:24.935Z,100563.56
2022-08-08T18:37:48.131Z,100567.59
2022-08-08T18:41:09.559Z,100566.81
2022-08-08T18:44:33.162Z,100575.50
2022-08-08T18:47:56.489Z,100571.44
2022-08-08T18:51:48.694Z,100563.50
2022-08-08T18:55:00.779Z,100567.00
2022-08-08T18:58:30.541Z,100558.50
2022-08-08T19:02:26.090Z,100552.41
2022-08-08T19:05:37.766Z,100555.03
2022-08-08T19:09:13.273Z,100548.19
2022-08-08T19:12:35.469Z,100554.34
2022-08-08T19:16:00.494Z,100558.44
2022-08-08T19:19:21.576Z,100555.03
2022-08-08T19:22:44.651Z,100560.47
2022-08-08T19:26:28.990Z,100558.88
2022-08-08T19:29:47.548Z,100561.72
2022-08-08T19:33:20.496Z,100549.75
2022-08-08T19:36:46.532Z,100549.16
2022-08-08T19:40:01.652Z,100557.31
2022-08-08T19:43:15.602Z,100555.53
2022-08-08T19:46:37.612Z,100552.69
2022-08-08T19:49:59.962Z,100543.56
2022-08-08T19:53:21.897Z,100547.22
2022-08-08T19:57:04.322Z,100541.34
2022-08-08T20:00:39.500Z,100535.41
2022-08-08T20:04:03.386Z,100539.50
2022-08-08T20:08:30.195Z,100530.81
2022-08-08T20:10:59.517Z,100521.72
2022-08-08T20:14:33.606Z,100515.69
2022-08-08T20:17:59.529Z,100521.56
2022-08-08T20:21:22.935Z,100547.09
2022-08-08T20:24:45.516Z,100540.41
2022-08-08T20:28:17.588Z,100535.56
2022-08-08T20:32:02.755Z,100542.44
2022-08-08T20:35:22.999Z,100541.59
2022-08-08T20:38:53.545Z,100529.47
2022-08-08T20:42:09.130Z,100541.00
2022-08-08T20:45:55.120Z,100546.31
2022-08-08T20:49:04.519Z,100543.47
2022-08-08T20:52:25.516Z,100548.97
2022-08-08T20:55:51.046Z,100555.44
2022-08-08T20:59:12.547Z,100551.38
2022-08-08T21:02:34.644Z,100538.00
2022-08-08T21:05:59.473Z,100518.56
2022-08-08T21:09:20.621Z,100531.13
2022-08-08T21:12:46.286Z,100531.72
2022-08-08T21:16:18.056Z,100539.22
2022-08-08T21:19:45.145Z,100542.06
2022-08-08T21:23:09.226Z,100546.53
2022-08-08T21:26:30.513Z,100554.22
2022-08-08T21:30:04.400Z,100577.75
2022-08-08T21:33:28.559Z,100606.50
2022-08-08T21:37:16.104Z,100624.56
2022-08-08T21:40:39.542Z,100643.03
2022-08-08T21:44:15.540Z,100634.09
2022-08-08T21:48:21.656Z,100630.84
2022-08-08T21:54:17.480Z,100655.16
2022-08-08T21:55:03.543Z,100653.94
2022-08-08T21:58:32.238Z,100647.47
2022-08-08T22:02:02.429Z,100631.66
2022-08-08T22:05:26.543Z,100631.25
2022-08-08T22:08:50.598Z,100622.72
2022-08-08T22:12:14.974Z,100615.81
2022-08-08T22:15:37.571Z,100602.03
2022-08-08T22:18:59.541Z,100566.59
2022-08-08T22:22:30.258Z,100555.13
2022-08-08T22:26:27.531Z,100537.94
2022-08-08T22:29:58.788Z,100525.63
2022-08-08T22:33:22.127Z,100549.06
2022-08-08T22:37:00.567Z,100548.88
2022-08-08T22:40:22.636Z,100549.66
2022-08-08T22:44:02.711Z,100546.78
2022-08-08T22:47:34.207Z,100557.09
2022-08-08T22:51:00.532Z,100557.34
2022-08-08T22:54:40.589Z,100557.16
2022-08-08T22:58:11.565Z,100556.53
2022-08-08T23:02:03.393Z,100548.66
2022-08-08T23:05:14.781Z,100544.00
2022-08-08T23:08:35.903Z,100548.25
2022-08-08T23:12:29.130Z,100549.31
2022-08-08T23:16:40.637Z,100559.84
2022-08-08T23:19:27.593Z,100556.28
2022-08-08T23:22:51.590Z,100573.50
2022-08-08T23:26:13.627Z,100594.19
2022-08-08T23:29:35.546Z,100589.97
2022-08-08T23:32:57.559Z,100598.69
2022-08-08T23:36:20.572Z,100614.09
2022-08-08T23:39:55.183Z,100621.22
2022-08-08T23:43:16.600Z,100621.22
2022-08-08T23:49:01.627Z,100625.72
2022-08-08T23:50:30.883Z,100612.56
2022-08-08T23:54:39.546Z,100589.28
2022-08-08T23:57:39.086Z,100572.53
